createdAt,value
2022-11-21T05:30:35.581Z,95.36
2022-11-21T05:31:35.473Z,95.36
2022-11-21T05:32:35.455Z,95.36
2022-11-21T05:33:35.446Z,95.36
2022-11-21T05:34:35.455Z,95.36
2022-11-21T05:35:40.137Z,95.61
2022-11-21T05:36:36.475Z,95.36
2022-11-21T05:37:35.396Z,95.40
2022-11-21T05:38:35.395Z,95.50
2022-11-21T05:39:35.388Z,95.36
2022-11-21T05:40:35.429Z,95.30
2022-11-21T05:41:35.377Z,95.36
2022-11-21T05:42:35.353Z,95.40
2022-11-21T05:43:35.344Z,95.50
2022-11-21T05:44:35.356Z,95.61
2022-11-21T05:45:35.387Z,95.50
2022-11-21T05:46:35.360Z,95.30
2022-11-21T05:47:35.302Z,95.40
2022-11-21T05:48:35.282Z,95.40
2022-11-21T05:49:35.294Z,95.71
2022-11-21T05:50:35.310Z,95.40
2022-11-21T05:51:35.284Z,95.40
2022-11-21T05:52:35.240Z,95.40
2022-11-21T05:53:35.240Z,96.33
2022-11-21T05:54:35.241Z,96.44
2022-11-21T05:55:35.218Z,96.12
2022-11-21T05:56:35.213Z,96.27
2022-11-21T05:57:35.228Z,96.12
2022-11-21T05:58:35.202Z,96.23
2022-11-21T05:59:35.257Z,96.27
2022-11-21T06:00:35.159Z,96.37
2022-11-21T06:01:35.153Z,95.96
2022-11-21T06:02:35.205Z,96.27
2022-11-21T06:03:35.162Z,96.37
2022-11-21T06:04:35.131Z,96.17
2022-11-21T06:05:35.160Z,96.17
2022-11-21T06:06:35.174Z,96.06
2022-11-21T06:07:35.149Z,95.76
2022-11-21T06:08:35.099Z,96.11
2022-11-21T06:09:35.093Z,96.21
2022-11-21T06:10:35.048Z,96.73
2022-11-21T06:11:35.091Z,96.73
2022-11-21T06:12:35.023Z,96.83
2022-11-21T06:13:35.030Z,96.52
2022-11-21T06:14:35.056Z,96.52
2022-11-21T06:15:35.023Z,96.94
2022-11-21T06:16:34.996Z,96.83
2022-11-21T06:17:35.025Z,96.83
2022-11-21T06:18:35.014Z,97.45
2022-11-21T06:19:34.953Z,97.34
2022-11-21T06:20:34.940Z,97.97
2022-11-21T06:21:34.994Z,97.97
2022-11-21T06:22:34.919Z,98.38
2022-11-21T06:23:34.913Z,98.28
2022-11-21T06:24:34.904Z,97.76
2022-11-21T06:25:34.896Z,98.13
2022-11-21T06:26:34.889Z,98.38
2022-11-21T06:27:34.877Z,98.79
2022-11-21T06:28:34.850Z,98.69
2022-11-21T06:29:34.849Z,98.44
2022-11-21T06:30:34.857Z,98.54
2022-11-21T06:31:34.849Z,99.16
2022-11-21T06:32:34.901Z,99.26
2022-11-21T06:33:34.818Z,98.96
2022-11-21T06:34:34.798Z,98.54
2022-11-21T06:35:34.779Z,98.13
2022-11-21T06:36:34.828Z,98.44
2022-11-21T06:37:34.765Z,98.75
2022-11-21T06:38:34.771Z,98.65
2022-11-21T06:39:34.758Z,98.75
2022-11-21T06:40:34.754Z,98.13
2022-11-21T06:41:34.713Z,98.18
2022-11-21T06:42:34.701Z,98.02
2022-11-21T06:43:34.732Z,98.18
2022-11-21T06:44:34.748Z,97.86
2022-11-21T06:45:34.733Z,97.82
2022-11-21T06:46:34.660Z,97.82
2022-11-21T06:47:34.667Z,97.72
2022-11-21T06:48:34.655Z,97.72
2022-11-21T06:49:34.661Z,97.76
2022-11-21T06:50:34.629Z,97.97
2022-11-21T06:51:34.619Z,98.07
2022-11-21T06:52:34.593Z,97.97
2022-11-21T06:53:34.625Z,98.38
2022-11-21T06:54:34.956Z,98.23
2022-11-21T06:55:34.575Z,98.13
2022-11-21T06:56:34.556Z,98.44
2022-11-21T06:57:34.541Z,99.06
2022-11-21T06:58:34.537Z,98.85
2022-11-21T06:59:34.539Z,98.96
2022-11-21T07:00:34.524Z,98.33
2022-11-21T07:01:34.641Z,98.33
2022-11-21T07:02:34.493Z,98.96
2022-11-21T07:03:34.486Z,98.13
2022-11-21T07:04:34.473Z,98.33
2022-11-21T07:05:34.461Z,98.13
2022-11-21T07:06:34.471Z,98.23
2022-11-21T07:07:34.537Z,98.96
2022-11-21T07:08:34.428Z,98.96
2022-11-21T07:09:34.486Z,98.44
2022-11-21T07:10:34.406Z,98.75
2022-11-21T07:11:34.417Z,98.33
2022-11-21T07:12:34.393Z,98.44
2022-11-21T07:13:34.374Z,98.44
2022-11-21T07:14:34.357Z,98.80
2022-11-21T07:15:34.353Z,98.33
2022-11-21T07:16:34.387Z,98.60
2022-11-21T07:17:34.338Z,98.50
2022-11-21T07:18:34.317Z,98.44
2022-11-21T07:19:38.425Z,98.54
2022-11-21T07:20:35.312Z,98.60
2022-11-21T07:21:34.288Z,98.65
2022-11-21T07:22:34.286Z,98.75
2022-11-21T07:23:34.270Z,98.70
2022-11-21T07:24:34.281Z,98.39
2022-11-21T07:25:36.874Z,97.98
2022-11-21T07:26:34.288Z,98.70
2022-11-21T07:27:34.228Z,98.33
2022-11-21T07:28:34.214Z,98.85
2022-11-21T07:29:34.215Z,98.70
2022-11-21T07:30:34.208Z,98.70
2022-11-21T07:31:34.193Z,98.50
2022-11-21T07:32:34.194Z,98.60
2022-11-21T07:33:34.180Z,98.50
2022-11-21T07:34:34.141Z,98.29
2022-11-21T07:35:34.148Z,98.08
2022-11-21T07:36:34.133Z,98.91
2022-11-21T07:37:34.131Z,98.19
2022-11-21T07:38:34.128Z,98.03
2022-11-21T07:39:34.098Z,97.98
2022-11-21T07:40:34.103Z,98.35
2022-11-21T07:41:34.077Z,98.24
2022-11-21T07:42:34.076Z,98.14
2022-11-21T07:43:34.051Z,97.73
2022-11-21T07:44:34.052Z,98.24
2022-11-21T07:45:34.090Z,97.83
2022-11-21T07:46:34.021Z,97.73
2022-11-21T07:47:34.026Z,97.94
2022-11-21T07:48:34.027Z,97.21
2022-11-21T07:49:34.029Z,97.42
2022-11-21T07:50:34.005Z,96.91
2022-11-21T07:51:33.968Z,97.01
2022-11-21T07:52:33.981Z,97.11
2022-11-21T07:53:33.959Z,96.80
2022-11-21T07:54:33.947Z,96.91
2022-11-21T07:55:37.802Z,96.80
2022-11-21T07:56:34.980Z,96.59
2022-11-21T07:57:33.909Z,96.45
2022-11-21T07:58:33.898Z,96.55
2022-11-21T07:59:33.892Z,96.66
2022-11-21T08:00:33.945Z,96.49
2022-11-21T08:01:33.975Z,96.45
2022-11-21T08:02:33.889Z,96.66
2022-11-21T08:03:33.888Z,96.59
2022-11-21T08:04:33.829Z,96.45
2022-11-21T08:05:33.815Z,96.45
2022-11-21T08:06:33.828Z,96.55
2022-11-21T08:07:33.814Z,96.66
2022-11-21T08:08:33.815Z,96.66
2022-11-21T08:09:37.322Z,96.86
2022-11-21T08:10:34.801Z,96.45
2022-11-21T08:11:33.773Z,97.06
2022-11-21T08:12:33.747Z,97.06
2022-11-21T08:13:33.747Z,96.34
2022-11-21T08:14:33.760Z,96.55
2022-11-21T08:15:33.715Z,96.96
2022-11-21T08:16:33.713Z,96.96
2022-11-21T08:17:33.701Z,97.38
2022-11-21T08:18:33.708Z,97.38
2022-11-21T08:19:33.700Z,96.86
2022-11-21T08:20:33.668Z,97.89
2022-11-21T08:21:33.659Z,97.78
2022-11-21T08:22:33.646Z,97.06
2022-11-21T08:23:33.624Z,97.27
2022-11-21T08:24:33.656Z,97.68
2022-11-21T08:25:33.659Z,97.48
2022-11-21T08:26:33.647Z,97.17
2022-11-21T08:27:33.635Z,97.27
2022-11-21T08:28:33.624Z,97.17
2022-11-21T08:29:33.596Z,96.70
2022-11-21T08:30:33.608Z,96.45
2022-11-21T08:31:33.585Z,96.66
2022-11-21T08:32:33.646Z,96.45
2022-11-21T08:33:33.567Z,96.66
2022-11-21T08:34:33.516Z,96.66
2022-11-21T08:35:33.574Z,96.96
2022-11-21T08:36:33.508Z,96.66
2022-11-21T08:37:33.479Z,96.55
2022-11-21T08:38:33.488Z,96.75
2022-11-21T08:39:33.485Z,96.96
2022-11-21T08:40:33.553Z,96.96
2022-11-21T08:41:33.434Z,97.06
2022-11-21T08:42:33.479Z,96.55
2022-11-21T08:43:33.414Z,96.34
2022-11-21T08:44:33.399Z,96.39
2022-11-21T08:45:33.499Z,96.55
2022-11-21T08:46:33.407Z,95.93
2022-11-21T08:47:33.373Z,95.93
2022-11-21T08:48:33.363Z,95.73
2022-11-21T08:49:33.392Z,96.14
2022-11-21T08:50:34.108Z,95.31
2022-11-21T08:51:33.354Z,95.83
2022-11-21T08:52:33.335Z,95.42
2022-11-21T08:53:33.325Z,95.48
2022-11-21T08:54:33.370Z,95.31
2022-11-21T08:55:33.300Z,94.65
2022-11-21T08:56:33.324Z,94.76
2022-11-21T08:57:33.289Z,94.76
2022-11-21T08:58:33.281Z,94.65
2022-11-21T08:59:33.247Z,95.06
2022-11-21T09:00:33.287Z,94.85
2022-11-21T09:01:33.298Z,94.76
2022-11-21T09:02:34.098Z,94.85
2022-11-21T09:03:33.197Z,94.65
2022-11-21T09:04:33.201Z,94.45
2022-11-21T09:05:33.169Z,94.45
2022-11-21T09:06:33.161Z,94.65
2022-11-21T09:07:33.290Z,94.71
2022-11-21T09:08:33.162Z,94.20
2022-11-21T09:09:33.176Z,93.79
2022-11-21T09:10:33.181Z,94.60
2022-11-21T09:11:33.109Z,93.99
2022-11-21T09:12:33.116Z,94.30
2022-11-21T09:13:33.090Z,94.51
2022-11-21T09:14:33.091Z,94.20
2022-11-21T09:15:33.127Z,93.74
2022-11-21T09:16:33.052Z,94.05
2022-11-21T09:17:33.074Z,94.15
2022-11-21T09:18:33.030Z,93.80
2022-11-21T09:19:33.049Z,92.57
2022-11-21T09:20:33.067Z,92.93
2022-11-21T09:21:32.995Z,91.91
2022-11-21T09:22:33.019Z,91.91
2022-11-21T09:23:33.067Z,91.14
2022-11-21T09:24:32.964Z,90.73
2022-11-21T09:25:33.006Z,90.28
2022-11-21T09:26:32.958Z,90.28
2022-11-21T09:27:32.928Z,88.95
2022-11-21T09:28:32.945Z,89.09
2022-11-21T09:29:32.979Z,89.50
2022-11-21T09:30:32.910Z,89.81
2022-11-21T09:31:32.897Z,89.40
2022-11-21T09:32:32.877Z,89.09
2022-11-21T09:33:32.873Z,89.81
2022-11-21T09:34:32.875Z,90.01
2022-11-21T09:35:32.889Z,90.01
2022-11-21T09:36:32.838Z,90.06
2022-11-21T09:37:32.828Z,90.36
2022-11-21T09:38:32.810Z,90.26
2022-11-21T09:39:32.822Z,90.26
2022-11-21T09:40:32.817Z,90.47
2022-11-21T09:41:32.841Z,90.06
2022-11-21T09:42:32.785Z,90.57
2022-11-21T09:43:32.822Z,90.06
2022-11-21T09:44:32.753Z,90.98
2022-11-21T09:45:32.744Z,91.04
2022-11-21T09:46:33.288Z,90.42
2022-11-21T09:47:32.755Z,89.70
2022-11-21T09:48:32.722Z,89.19
2022-11-21T09:49:32.726Z,89.76
2022-11-21T09:50:32.712Z,89.66
2022-11-21T09:51:32.671Z,88.59
2022-11-21T09:52:32.672Z,88.66
2022-11-21T09:53:32.751Z,88.56
2022-11-21T09:54:32.653Z,88.10
2022-11-21T09:55:32.639Z,87.18
2022-11-21T09:56:32.617Z,87.08
2022-11-21T09:57:35.060Z,86.66
2022-11-21T09:58:32.636Z,87.34
2022-11-21T09:59:32.653Z,86.36
2022-11-21T10:00:32.692Z,86.36
2022-11-21T10:01:32.629Z,86.46
2022-11-21T10:02:32.569Z,87.18
2022-11-21T10:03:32.600Z,86.57
2022-11-21T10:04:32.579Z,87.59
2022-11-21T10:05:32.544Z,87.43
2022-11-21T10:06:32.515Z,87.32
2022-11-21T10:07:32.641Z,86.30
2022-11-21T10:08:32.506Z,86.50
2022-11-21T10:09:32.506Z,86.91
2022-11-21T10:10:32.499Z,87.38
2022-11-21T10:11:32.504Z,87.38
2022-11-21T10:12:32.488Z,87.22
2022-11-21T10:13:32.518Z,87.32
2022-11-21T10:14:32.462Z,86.91
2022-11-21T10:15:32.473Z,87.94
2022-11-21T10:16:32.413Z,88.24
2022-11-21T10:17:32.441Z,88.24
2022-11-21T10:18:32.410Z,86.50
2022-11-21T10:19:32.437Z,86.03
2022-11-21T10:20:32.397Z,85.11
2022-11-21T10:21:32.399Z,85.41
2022-11-21T10:22:32.468Z,85.41
2022-11-21T10:23:32.343Z,85.82
2022-11-21T10:24:32.330Z,86.27
2022-11-21T10:25:32.303Z,85.97
2022-11-21T10:26:32.324Z,85.52
2022-11-21T10:27:32.292Z,84.01
2022-11-21T10:28:32.302Z,84.49
2022-11-21T10:29:32.299Z,84.08
2022-11-21T10:30:32.271Z,84.49
2022-11-21T10:31:32.293Z,84.28
2022-11-21T10:32:32.239Z,84.53
2022-11-21T10:33:32.257Z,84.25
2022-11-21T10:34:32.257Z,83.94
2022-11-21T10:35:32.242Z,83.83
2022-11-21T10:36:32.191Z,83.83
2022-11-21T10:37:32.186Z,83.73
2022-11-21T10:38:32.168Z,83.12
2022-11-21T10:39:32.161Z,83.32
2022-11-21T10:40:32.212Z,83.22
2022-11-21T10:41:32.138Z,82.81
2022-11-21T10:42:32.132Z,82.97
2022-11-21T10:43:32.128Z,82.67
2022-11-21T10:44:32.101Z,82.12
2022-11-21T10:45:32.112Z,81.81
2022-11-21T10:46:32.128Z,81.71
2022-11-21T10:47:32.080Z,81.91
2022-11-21T10:48:32.059Z,81.29
2022-11-21T10:49:32.043Z,80.95
2022-11-21T10:50:32.076Z,80.47
2022-11-21T10:51:32.068Z,80.99
2022-11-21T10:52:32.047Z,80.47
2022-11-21T10:53:32.024Z,80.64
2022-11-21T10:54:32.237Z,80.74
2022-11-21T10:55:32.004Z,81.57
2022-11-21T10:56:31.992Z,80.03
2022-11-21T10:57:31.974Z,81.05
2022-11-21T10:58:32.011Z,80.95
2022-11-21T10:59:31.987Z,80.23
2022-11-21T11:00:32.012Z,80.64
2022-11-21T11:01:32.103Z,81.15
2022-11-21T11:02:31.913Z,81.15
2022-11-21T11:03:31.942Z,80.95
2022-11-21T11:04:37.599Z,81.40
2022-11-21T11:05:32.885Z,80.95
2022-11-21T11:06:31.877Z,80.17
2022-11-21T11:07:31.898Z,80.47
2022-11-21T11:08:31.862Z,81.71
2022-11-21T11:09:31.855Z,81.71
2022-11-21T11:10:31.839Z,81.71
2022-11-21T11:11:31.829Z,81.50
2022-11-21T11:12:31.852Z,80.47
2022-11-21T11:13:49.156Z,80.99
2022-11-21T11:14:32.814Z,81.85
2022-11-21T11:15:31.787Z,81.64
2022-11-21T11:16:31.780Z,81.64
2022-11-21T11:17:31.783Z,81.43
2022-11-21T11:18:31.736Z,81.64
2022-11-21T11:19:37.007Z,81.43
2022-11-21T11:20:32.715Z,81.57
2022-11-21T11:21:31.719Z,82.19
2022-11-21T11:22:31.708Z,82.19
2022-11-21T11:23:31.688Z,82.81
2022-11-21T11:24:31.840Z,82.50
2022-11-21T11:25:31.665Z,82.40
2022-11-21T11:26:31.649Z,82.09
2022-11-21T11:27:31.817Z,82.15
2022-11-21T11:28:31.649Z,81.57
2022-11-21T11:29:32.006Z,81.85
2022-11-21T11:30:31.684Z,81.27
2022-11-21T11:31:31.620Z,81.16
2022-11-21T11:32:31.585Z,80.55
2022-11-21T11:33:31.596Z,81.27
2022-11-21T11:34:31.559Z,80.45
2022-11-21T11:35:31.569Z,80.14
2022-11-21T11:36:31.594Z,81.62
2022-11-21T11:37:35.755Z,80.04
2022-11-21T11:38:32.530Z,80.14
2022-11-21T11:39:31.575Z,79.73
2022-11-21T11:40:31.505Z,78.94
2022-11-21T11:41:31.524Z,79.97
2022-11-21T11:42:31.523Z,80.04
2022-11-21T11:43:31.588Z,80.24
2022-11-21T11:44:31.461Z,80.76
2022-11-21T11:45:31.438Z,80.45
2022-11-21T11:46:31.476Z,80.45
2022-11-21T11:47:31.434Z,79.01
2022-11-21T11:48:31.480Z,79.97
2022-11-21T11:49:31.399Z,80.55
2022-11-21T11:50:31.529Z,80.76
2022-11-21T11:51:31.396Z,80.14
2022-11-21T11:52:31.451Z,79.11
2022-11-21T11:53:31.420Z,79.46
2022-11-21T11:54:31.366Z,78.94
2022-11-21T11:55:31.373Z,78.23
2022-11-21T11:56:31.323Z,78.33
2022-11-21T11:57:31.331Z,78.23
2022-11-21T11:58:31.369Z,78.64
2022-11-21T11:59:31.549Z,78.74
2022-11-21T12:00:31.282Z,78.78
2022-11-21T12:01:31.264Z,77.85
2022-11-21T12:02:31.334Z,78.06
2022-11-21T12:03:31.275Z,78.53
2022-11-21T12:04:31.440Z,78.53
2022-11-21T12:05:31.216Z,78.23
2022-11-21T12:07:04.092Z,78.64
2022-11-21T12:08:33.217Z,78.94
2022-11-21T12:08:41.943Z,78.67
2022-11-21T12:09:32.655Z,78.47
2022-11-21T12:10:31.182Z,79.15
2022-11-21T12:11:31.171Z,79.25
2022-11-21T12:12:31.160Z,79.91
2022-11-21T12:13:31.178Z,80.07
2022-11-21T12:14:31.128Z,79.25
2022-11-21T12:15:31.144Z,79.25
2022-11-21T12:16:31.125Z,79.15
2022-11-21T12:17:31.093Z,79.25
2022-11-21T12:18:31.132Z,78.36
2022-11-21T12:19:31.245Z,78.12
2022-11-21T12:20:31.080Z,77.95
2022-11-21T12:21:31.060Z,78.57
2022-11-21T12:22:31.038Z,78.36
2022-11-21T12:23:31.050Z,79.70
2022-11-21T12:24:31.061Z,80.21
2022-11-21T12:25:31.013Z,79.80
2022-11-21T12:26:31.080Z,80.32
2022-11-21T12:27:31.001Z,79.49
2022-11-21T12:28:30.980Z,78.12
2022-11-21T12:29:31.249Z,78.94
2022-11-21T12:30:30.948Z,78.64
2022-11-21T12:31:30.943Z,78.64
2022-11-21T12:32:30.969Z,78.33
2022-11-21T12:33:30.952Z,78.78
2022-11-21T12:34:30.912Z,78.74
2022-11-21T12:35:30.908Z,79.05
2022-11-21T12:36:30.935Z,78.94
2022-11-21T12:37:30.899Z,79.15
2022-11-21T12:38:30.913Z,79.05
2022-11-21T12:39:31.103Z,77.71
2022-11-21T12:40:30.867Z,77.81
2022-11-21T12:41:30.843Z,78.02
2022-11-21T12:42:30.843Z,78.02
2022-11-21T12:43:30.833Z,77.92
2022-11-21T12:44:30.805Z,77.92
2022-11-21T12:45:30.830Z,78.02
2022-11-21T12:46:30.785Z,77.81
2022-11-21T12:47:30.773Z,78.23
2022-11-21T12:48:30.776Z,78.33
2022-11-21T12:49:30.994Z,77.71
2022-11-21T12:50:30.919Z,77.81
2022-11-21T12:51:30.738Z,77.20
2022-11-21T12:52:30.718Z,77.00
2022-11-21T12:53:30.738Z,78.02
2022-11-21T12:54:30.793Z,77.92
2022-11-21T12:55:35.050Z,76.68
2022-11-21T12:56:30.723Z,76.89
2022-11-21T12:57:30.678Z,76.79
2022-11-21T12:58:30.681Z,77.98
2022-11-21T12:59:30.989Z,77.92
2022-11-21T13:00:30.639Z,78.02
2022-11-21T13:01:30.701Z,77.98
2022-11-21T13:02:30.666Z,78.09
2022-11-21T13:03:30.598Z,75.97
2022-11-21T13:04:30.609Z,76.14
2022-11-21T13:05:30.685Z,76.48
2022-11-21T13:06:30.578Z,75.25
2022-11-21T13:07:30.677Z,76.07
2022-11-21T13:08:30.550Z,76.24
2022-11-21T13:09:30.876Z,76.28
2022-11-21T13:10:30.526Z,76.68
2022-11-21T13:11:30.543Z,76.68
2022-11-21T13:12:30.515Z,76.17
2022-11-21T13:13:30.507Z,75.73
2022-11-21T13:14:30.520Z,75.76
2022-11-21T13:15:35.422Z,76.07
2022-11-21T13:16:31.459Z,76.38
2022-11-21T13:17:30.458Z,76.68
2022-11-21T13:18:30.450Z,76.48
2022-11-21T13:19:30.725Z,76.38
2022-11-21T13:20:30.476Z,76.38
2022-11-21T13:21:30.418Z,76.04
2022-11-21T13:22:30.419Z,76.79
2022-11-21T13:23:30.418Z,76.28
2022-11-21T13:24:30.399Z,76.48
2022-11-21T13:25:30.404Z,76.89
2022-11-21T13:26:30.420Z,77.37
2022-11-21T13:27:35.024Z,78.02
2022-11-21T13:28:31.344Z,76.68
2022-11-21T13:29:30.760Z,78.02
2022-11-21T13:30:30.326Z,76.89
2022-11-21T13:31:30.341Z,77.00
2022-11-21T13:32:30.298Z,77.20
2022-11-21T13:33:30.303Z,76.79
2022-11-21T13:34:30.428Z,78.02
2022-11-21T13:35:30.304Z,76.89
2022-11-21T13:36:30.285Z,76.79
2022-11-21T13:37:30.239Z,77.81
2022-11-21T13:38:30.265Z,77.92
2022-11-21T13:39:30.780Z,77.98
2022-11-21T13:40:30.231Z,78.12
2022-11-21T13:41:30.203Z,78.81
2022-11-21T13:42:30.211Z,78.50
2022-11-21T13:43:33.128Z,78.02
2022-11-21T13:44:30.195Z,78.19
2022-11-21T13:45:30.148Z,78.60
2022-11-21T13:46:30.155Z,78.91
2022-11-21T13:47:30.198Z,78.39
2022-11-21T13:48:30.159Z,78.12
2022-11-21T13:49:30.457Z,78.09
2022-11-21T13:50:30.093Z,78.85
2022-11-21T13:51:30.125Z,79.22
2022-11-21T13:52:30.095Z,78.64
2022-11-21T13:53:30.062Z,79.05
2022-11-21T13:54:30.055Z,78.02
2022-11-21T13:55:30.052Z,78.02
2022-11-21T13:56:30.065Z,78.33
2022-11-21T13:57:30.072Z,78.33
2022-11-21T13:58:30.006Z,78.64
2022-11-21T13:59:30.270Z,79.08
2022-11-21T14:00:30.019Z,79.25
2022-11-21T14:01:30.113Z,79.36
2022-11-21T14:02:30.044Z,79.19
2022-11-21T14:03:29.968Z,80.32
2022-11-21T14:04:29.978Z,80.11
2022-11-21T14:05:29.942Z,80.11
2022-11-21T14:06:32.845Z,79.91
2022-11-21T14:07:30.146Z,80.21
2022-11-21T14:08:30.027Z,80.63
2022-11-21T14:09:30.057Z,79.91
2022-11-21T14:10:29.886Z,80.52
2022-11-21T14:11:29.893Z,80.46
2022-11-21T14:12:33.690Z,80.73
2022-11-21T14:13:29.867Z,80.73
2022-11-21T14:14:29.866Z,80.63
2022-11-21T14:15:29.830Z,81.04
2022-11-21T14:16:29.823Z,81.86
2022-11-21T14:17:29.815Z,81.34
2022-11-21T14:18:29.871Z,81.76
2022-11-21T14:19:30.036Z,81.24
2022-11-21T14:20:29.778Z,81.34
2022-11-21T14:21:29.770Z,80.73
2022-11-21T14:22:34.771Z,80.93
2022-11-21T14:23:30.781Z,81.04
2022-11-21T14:24:29.757Z,80.83
2022-11-21T14:25:29.741Z,80.25
2022-11-21T14:26:29.897Z,80.87
2022-11-21T14:27:31.824Z,81.38
2022-11-21T14:28:32.815Z,81.79
2022-11-21T14:29:31.217Z,81.18
2022-11-21T14:30:33.632Z,81.69
2022-11-21T14:31:30.546Z,81.59
2022-11-21T14:32:31.629Z,81.28
2022-11-21T14:33:32.620Z,81.79
2022-11-21T14:34:32.638Z,81.38
2022-11-21T14:35:31.418Z,81.79
2022-11-21T14:36:32.779Z,82.31
2022-11-21T14:37:31.125Z,82.41
2022-11-21T14:38:31.549Z,81.79
2022-11-21T14:39:37.732Z,81.90
2022-11-21T14:40:31.803Z,81.90
2022-11-21T14:41:29.794Z,82.04
2022-11-21T14:42:29.918Z,82.31
2022-11-21T14:43:29.729Z,82.34
2022-11-21T14:44:30.100Z,82.86
2022-11-21T14:45:30.253Z,82.76
2022-11-21T14:46:29.961Z,82.14
2022-11-21T14:47:30.965Z,82.45
2022-11-21T14:48:30.758Z,82.86
2022-11-21T14:50:51.426Z,82.34
2022-11-21T14:51:51.401Z,82.65
2022-11-21T14:52:51.355Z,82.65
2022-11-21T14:53:51.445Z,83.06
2022-11-21T14:56:13.513Z,84.30
2022-11-21T14:56:51.868Z,84.50
2022-11-21T14:57:52.222Z,83.78
2022-11-21T14:58:51.558Z,83.89
2022-11-21T14:59:51.412Z,83.89
2022-11-21T15:00:59.508Z,83.58
2022-11-21T15:01:52.521Z,83.89
2022-11-21T15:02:51.467Z,84.30
2022-11-21T15:03:51.325Z,84.30
2022-11-21T15:04:51.260Z,84.44
2022-11-21T15:06:08.142Z,84.50
2022-11-21T15:06:52.348Z,84.44
2022-11-21T15:08:05.412Z,84.44
2022-11-21T15:10:52.407Z,84.44
2022-11-21T15:11:51.275Z,84.30
2022-11-21T15:12:51.214Z,84.54
2022-11-21T15:14:14.301Z,84.44
2022-11-21T15:14:52.136Z,84.54
2022-11-21T15:15:51.266Z,84.44
2022-11-21T15:16:51.939Z,84.44
2022-11-21T15:18:23.906Z,84.54
2022-11-21T15:18:52.270Z,85.16
2022-11-21T15:19:51.135Z,85.47
2022-11-21T15:20:51.083Z,85.26
2022-11-21T15:21:53.114Z,85.47
2022-11-21T15:22:51.219Z,85.57
2022-11-21T15:23:51.429Z,85.51
2022-11-21T15:24:51.341Z,85.47
2022-11-21T15:25:54.528Z,85.47
2022-11-21T15:26:52.263Z,86.33
2022-11-21T15:27:51.008Z,86.13
2022-11-21T15:28:51.147Z,85.71
2022-11-21T15:30:00.554Z,86.13
2022-11-21T15:30:54.022Z,86.43
2022-11-21T15:31:52.953Z,86.33
2022-11-21T15:32:51.131Z,87.05
2022-11-21T15:34:12.222Z,86.64
2022-11-21T15:34:52.128Z,86.85
2022-11-21T15:35:52.528Z,86.95
2022-11-21T15:36:51.259Z,86.95
2022-11-21T15:37:52.148Z,86.85
2022-11-21T15:38:50.961Z,87.57
2022-11-21T15:39:50.935Z,87.57
2022-11-21T15:40:52.635Z,87.77
2022-11-21T15:41:53.250Z,87.77
2022-11-21T15:42:52.728Z,87.57
2022-11-21T15:43:51.253Z,88.08
2022-11-21T15:44:51.153Z,87.98
2022-11-21T15:45:50.837Z,87.77
2022-11-21T15:47:12.856Z,87.77
2022-11-21T15:47:51.475Z,87.67
2022-11-21T15:48:51.042Z,87.57
2022-11-21T15:49:52.221Z,87.92
2022-11-21T15:50:57.575Z,88.08
2022-11-21T15:52:09.930Z,88.23
2022-11-21T15:52:53.463Z,88.12
2022-11-21T15:53:50.805Z,87.57
2022-11-21T15:54:50.648Z,87.46
2022-11-21T15:55:50.836Z,87.87
2022-11-21T15:56:53.491Z,88.08
2022-11-21T15:57:50.745Z,88.39
2022-11-21T15:58:50.771Z,88.80
2022-11-21T15:59:50.786Z,88.29
2022-11-21T16:00:50.838Z,88.90
2022-11-21T16:01:50.721Z,88.08
2022-11-21T16:02:51.235Z,88.59
2022-11-21T16:03:50.567Z,88.29
2022-11-21T16:04:50.894Z,88.18
2022-11-21T16:05:50.699Z,88.39
2022-11-21T16:06:50.504Z,88.23
2022-11-21T16:07:50.609Z,88.49
2022-11-21T16:08:50.482Z,87.87
2022-11-21T16:09:50.474Z,88.84
2022-11-21T16:10:50.501Z,88.33
2022-11-21T16:11:50.505Z,88.33
2022-11-21T16:12:50.456Z,88.33
2022-11-21T16:13:50.442Z,88.59
2022-11-21T16:14:50.420Z,88.64
2022-11-21T16:15:50.406Z,88.23
2022-11-21T16:16:50.452Z,88.59
2022-11-21T16:17:50.445Z,88.23
2022-11-21T16:18:58.040Z,87.98
2022-11-21T16:19:50.445Z,88.29
2022-11-21T16:20:50.391Z,87.98
2022-11-21T16:21:50.368Z,88.70
2022-11-21T16:22:50.381Z,88.59
2022-11-21T16:23:50.336Z,88.74
2022-11-21T16:24:50.333Z,88.59
2022-11-21T16:25:50.339Z,87.60
2022-11-21T16:26:50.326Z,87.51
2022-11-21T16:27:50.289Z,87.57
2022-11-21T16:28:50.262Z,87.67
2022-11-21T16:29:50.282Z,87.46
2022-11-21T16:30:50.254Z,87.81
2022-11-21T16:31:50.246Z,87.26
2022-11-21T16:32:50.268Z,87.09
2022-11-21T16:33:50.274Z,87.87
2022-11-21T16:34:50.204Z,87.77
2022-11-21T16:35:50.192Z,88.18
2022-11-21T16:36:50.655Z,87.98
2022-11-21T16:37:50.179Z,87.87
2022-11-21T16:38:50.180Z,87.71
2022-11-21T16:39:50.163Z,87.71
2022-11-21T16:40:50.184Z,87.77
2022-11-21T16:41:50.180Z,87.51
2022-11-21T16:42:50.133Z,87.71
2022-11-21T16:43:50.149Z,87.26
2022-11-21T16:44:50.130Z,88.08
2022-11-21T16:45:50.099Z,87.67
2022-11-21T16:46:50.098Z,87.92
2022-11-21T16:47:50.106Z,87.77
2022-11-21T16:48:50.120Z,87.40
2022-11-21T16:49:50.162Z,87.46
2022-11-21T16:50:50.033Z,86.88
2022-11-21T16:51:50.093Z,86.95
2022-11-21T16:52:50.038Z,86.95
2022-11-21T16:53:50.058Z,86.47
2022-11-21T16:54:50.025Z,86.74
2022-11-21T16:55:50.034Z,86.47
2022-11-21T16:56:49.994Z,86.58
2022-11-21T16:57:49.995Z,86.47
2022-11-21T16:58:49.987Z,86.58
2022-11-21T16:59:49.939Z,86.27
2022-11-21T17:00:50.019Z,86.47
2022-11-21T17:01:49.982Z,86.88
2022-11-21T17:02:49.907Z,86.79
2022-11-21T17:03:49.900Z,86.88
2022-11-21T17:04:49.881Z,86.79
2022-11-21T17:05:49.881Z,86.47
2022-11-21T17:06:49.893Z,86.37
2022-11-21T17:07:49.962Z,86.58
2022-11-21T17:08:49.875Z,85.86
2022-11-21T17:09:49.842Z,86.27
2022-11-21T17:10:49.867Z,86.16
2022-11-21T17:11:49.831Z,86.47
2022-11-21T17:12:49.806Z,86.68
2022-11-21T17:13:49.812Z,86.58
2022-11-21T17:14:49.796Z,86.27
2022-11-21T17:15:49.813Z,86.88
2022-11-21T17:16:49.835Z,87.19
2022-11-21T17:17:49.781Z,86.37
2022-11-21T17:18:49.804Z,86.16
2022-11-21T17:19:49.745Z,86.27
2022-11-21T17:20:49.742Z,86.16
2022-11-21T17:21:49.704Z,86.27
2022-11-21T17:22:49.726Z,86.27
2022-11-21T17:23:49.674Z,86.37
2022-11-21T17:24:49.658Z,85.75
2022-11-21T17:25:49.739Z,86.06
2022-11-21T17:26:49.638Z,86.37
2022-11-21T17:27:49.645Z,86.06
2022-11-21T17:28:49.627Z,86.37
2022-11-21T17:29:49.618Z,85.96
2022-11-21T17:30:49.613Z,86.16
2022-11-21T17:31:49.584Z,86.37
2022-11-21T17:32:49.586Z,86.27
2022-11-21T17:33:49.564Z,86.37
2022-11-21T17:34:49.557Z,86.27
2022-11-21T17:35:49.553Z,86.47
2022-11-21T17:36:49.540Z,86.37
2022-11-21T17:37:49.517Z,86.27
2022-11-21T17:38:49.532Z,86.27
2022-11-21T17:39:49.508Z,86.27
2022-11-21T17:40:49.500Z,85.96
2022-11-21T17:41:49.486Z,86.58
2022-11-21T17:42:49.498Z,86.16
2022-11-21T17:43:49.461Z,86.10
2022-11-21T17:44:49.464Z,86.16
2022-11-21T17:45:49.434Z,86.16
2022-11-21T17:46:49.434Z,85.86
2022-11-21T17:47:49.407Z,86.27
2022-11-21T17:48:54.554Z,86.58
2022-11-21T17:49:50.401Z,85.96
2022-11-21T17:50:49.369Z,86.41
2022-11-21T17:51:53.777Z,86.58
2022-11-21T17:52:50.349Z,86.37
2022-11-21T17:53:49.387Z,86.37
2022-11-21T17:54:49.352Z,86.16
2022-11-21T17:55:49.342Z,86.37
2022-11-21T17:56:56.477Z,86.37
2022-11-21T17:57:49.317Z,86.27
2022-11-21T17:58:49.294Z,85.86
2022-11-21T17:59:49.314Z,86.37
2022-11-21T18:00:49.337Z,86.58
2022-11-21T18:01:49.402Z,86.06
2022-11-21T18:02:49.428Z,85.75
2022-11-21T18:03:49.249Z,86.37
2022-11-21T18:04:49.267Z,86.27
2022-11-21T18:05:51.806Z,86.06
2022-11-21T18:06:49.208Z,86.06
2022-11-21T18:07:49.208Z,86.27
2022-11-21T18:08:49.185Z,86.27
2022-11-21T18:09:49.188Z,86.27
2022-11-21T18:10:49.154Z,87.09
2022-11-21T18:11:49.142Z,86.68
2022-11-21T18:12:49.129Z,86.88
2022-11-21T18:13:49.141Z,86.79
2022-11-21T18:14:49.116Z,86.27
2022-11-21T18:15:49.127Z,86.37
2022-11-21T18:16:53.480Z,86.58
2022-11-21T18:17:49.107Z,86.58
2022-11-21T18:18:50.115Z,86.58
2022-11-21T18:19:49.113Z,86.79
2022-11-21T18:20:49.103Z,86.79
2022-11-21T18:21:49.070Z,86.68
2022-11-21T18:22:49.047Z,87.09
2022-11-21T18:23:49.018Z,86.88
2022-11-21T18:24:49.037Z,86.99
2022-11-21T18:25:49.058Z,86.88
2022-11-21T18:26:48.993Z,86.58